createdAt,value
2023-06-01T00:02:22.280Z,7.50
2023-06-01T00:05:25.688Z,6.70
2023-06-01T00:08:28.910Z,6.00
2023-06-01T00:11:32.164Z,6.60
2023-06-01T00:14:36.822Z,6.83
2023-06-01T00:17:40.088Z,6.57
2023-06-01T00:20:43.991Z,6.67
2023-06-01T00:23:47.272Z,6.20
2023-06-01T00:26:50.500Z,6.60
2023-06-01T00:29:55.038Z,6.40
2023-06-01T00:32:58.297Z,6.13
2023-06-01T00:36:01.626Z,6.17
2023-06-01T00:39:05.175Z,5.77
2023-06-01T00:42:08.820Z,6.67
2023-06-01T00:45:13.720Z,6.90
2023-06-01T00:48:17.771Z,6.20
2023-06-01T00:51:21.449Z,7.23
2023-06-01T00:54:24.674Z,6.43
2023-06-01T00:57:28.460Z,7.67
2023-06-01T01:00:33.332Z,6.60
2023-06-01T01:03:39.687Z,6.50
2023-06-01T01:06:49.944Z,6.87
2023-06-01T01:09:57.163Z,7.20
2023-06-01T01:13:04.232Z,6.83
2023-06-01T01:16:10.800Z,6.67
2023-06-01T01:19:26.042Z,6.77
2023-06-01T01:22:46.198Z,6.73
2023-06-01T01:26:02.257Z,6.93
2023-06-01T01:29:09.158Z,6.67
2023-06-01T01:32:12.942Z,6.80
2023-06-01T01:35:16.628Z,6.77
2023-06-01T01:38:19.886Z,7.10
2023-06-01T01:41:23.550Z,7.40
2023-06-01T01:44:28.101Z,6.93
2023-06-01T01:47:34.424Z,7.03
2023-06-01T01:50:40.883Z,6.30
2023-06-01T01:53:45.907Z,6.57
2023-06-01T01:56:51.035Z,7.17
2023-06-01T01:59:55.598Z,7.57
2023-06-01T02:02:58.902Z,7.63
2023-06-01T02:06:02.150Z,6.97
2023-06-01T02:09:07.712Z,6.80
2023-06-01T02:12:11.107Z,6.73
2023-06-01T02:15:15.250Z,7.73
2023-06-01T02:18:18.871Z,6.43
2023-06-01T02:21:21.850Z,6.40
2023-06-01T02:24:24.798Z,7.13
2023-06-01T02:27:28.524Z,7.57
2023-06-01T02:30:33.014Z,6.37
2023-06-01T02:33:35.840Z,6.47
2023-06-01T02:36:38.836Z,6.70
2023-06-01T02:39:41.630Z,7.43
2023-06-01T02:42:44.489Z,7.17
2023-06-01T02:45:48.739Z,7.30
2023-06-01T02:48:52.218Z,7.50
2023-06-01T02:51:55.007Z,6.07
2023-06-01T02:54:57.937Z,7.23
2023-06-01T02:58:00.853Z,6.90
2023-06-01T03:01:05.309Z,6.90
2023-06-01T03:04:08.632Z,6.60
2023-06-01T03:07:11.566Z,7.07
2023-06-01T03:10:14.828Z,7.33
2023-06-01T03:13:17.652Z,6.37
2023-06-01T03:16:21.859Z,6.83
2023-06-01T03:19:25.010Z,7.77
2023-06-01T03:22:27.898Z,5.87
2023-06-01T03:25:30.742Z,6.57
2023-06-01T03:28:33.517Z,6.33
2023-06-01T03:31:37.771Z,7.07
2023-06-01T03:34:41.311Z,7.37
2023-06-01T03:37:45.537Z,7.37
2023-06-01T03:40:48.348Z,7.03
2023-06-01T03:43:51.388Z,7.10
2023-06-01T03:46:55.592Z,7.73
2023-06-01T03:49:58.816Z,6.87
2023-06-01T03:53:01.721Z,7.13
2023-06-01T03:56:04.910Z,7.67
2023-06-01T03:59:11.370Z,7.40
2023-06-01T04:02:15.840Z,7.70
2023-06-01T04:05:18.885Z,8.27
2023-06-01T04:08:22.614Z,7.50
2023-06-01T04:11:25.809Z,7.57
2023-06-01T04:14:28.609Z,8.33
2023-06-01T04:17:32.765Z,7.43
2023-06-01T04:20:35.997Z,7.70
2023-06-01T04:23:39.293Z,6.97
2023-06-01T04:26:42.122Z,8.43
2023-06-01T04:29:45.332Z,7.23
2023-06-01T04:32:50.277Z,8.20
2023-06-01T04:35:54.632Z,7.93
2023-06-01T04:38:58.382Z,8.17
2023-06-01T04:42:02.624Z,8.43
2023-06-01T04:45:08.831Z,9.07
2023-06-01T04:48:13.529Z,7.77
2023-06-01T04:51:20.367Z,7.47
2023-06-01T04:54:23.800Z,8.37
2023-06-01T04:57:26.576Z,6.43
2023-06-01T05:00:29.349Z,7.03
2023-06-01T05:03:33.613Z,7.60
2023-06-01T05:06:37.107Z,8.20
2023-06-01T05:09:39.892Z,6.90
2023-06-01T05:12:43.104Z,6.73
2023-06-01T05:15:46.351Z,6.80
2023-06-01T05:18:52.434Z,7.07
2023-06-01T05:21:55.831Z,5.90
2023-06-01T05:24:59.086Z,6.37
2023-06-01T05:28:02.303Z,6.57
2023-06-01T05:31:06.350Z,7.20
2023-06-01T05:34:10.967Z,6.37
2023-06-01T05:37:14.187Z,6.23
2023-06-01T05:40:17.801Z,6.40
2023-06-01T05:43:21.055Z,5.77
2023-06-01T05:46:25.711Z,5.87
2023-06-01T05:49:32.614Z,5.53
2023-06-01T05:52:35.817Z,6.33
2023-06-01T05:55:39.052Z,6.10
2023-06-01T05:58:42.655Z,5.87
2023-06-01T06:01:46.490Z,5.67
2023-06-01T06:04:51.236Z,6.17
2023-06-01T06:07:54.452Z,5.80
2023-06-01T06:10:57.741Z,5.27
2023-06-01T06:14:01.094Z,6.23
2023-06-01T06:17:04.379Z,5.63
2023-06-01T06:20:09.969Z,5.60
2023-06-01T06:23:13.573Z,6.17
2023-06-01T06:26:16.812Z,6.43
2023-06-01T06:29:20.167Z,5.13
2023-06-01T06:32:23.883Z,6.40
2023-06-01T06:35:28.744Z,6.10
2023-06-01T06:38:32.123Z,7.10
2023-06-01T06:41:35.418Z,6.43
2023-06-01T06:44:38.684Z,6.50
2023-06-01T06:47:42.959Z,5.97
2023-06-01T06:50:47.587Z,6.03
2023-06-01T06:53:51.005Z,5.83
2023-06-01T06:56:54.208Z,5.30
2023-06-01T06:59:58.342Z,6.43
2023-06-01T07:03:01.952Z,6.73
2023-06-01T07:06:07.409Z,5.37
2023-06-01T07:09:10.938Z,5.33
2023-06-01T07:12:14.149Z,5.70
2023-06-01T07:15:18.226Z,6.20
2023-06-01T07:18:21.437Z,6.03
2023-06-01T07:21:26.069Z,5.77
2023-06-01T07:24:29.460Z,5.30
2023-06-01T07:27:33.150Z,5.40
2023-06-01T07:30:36.526Z,5.70
2023-06-01T07:33:39.918Z,5.47
2023-06-01T07:36:46.353Z,5.67
2023-06-01T07:39:49.583Z,6.83
2023-06-01T07:42:52.778Z,5.67
2023-06-01T07:45:56.441Z,5.10
2023-06-01T07:48:59.849Z,5.40
2023-06-01T07:52:04.476Z,5.70
2023-06-01T07:55:10.118Z,5.68
2023-06-01T07:58:13.360Z,5.55
2023-06-01T08:01:16.666Z,5.22
2023-06-01T08:04:21.742Z,5.50
2023-06-01T08:07:28.961Z,5.65
2023-06-01T08:10:32.519Z,4.53
2023-06-01T08:13:36.381Z,5.38
2023-06-01T08:16:39.814Z,4.35
2023-06-01T08:19:43.749Z,5.32
2023-06-01T08:22:48.317Z,4.93
2023-06-01T08:25:51.632Z,5.57
2023-06-01T08:28:54.921Z,5.72
2023-06-01T08:32:00.370Z,5.25
2023-06-01T08:35:03.767Z,5.68
2023-06-01T08:38:08.339Z,5.43
2023-06-01T08:41:14.316Z,5.03
2023-06-01T08:44:18.750Z,5.68
2023-06-01T08:47:22.785Z,5.57
2023-06-01T08:50:26.428Z,4.78
2023-06-01T08:53:32.503Z,5.18
2023-06-01T08:56:36.051Z,5.65
2023-06-01T08:59:47.897Z,5.70
2023-06-01T09:02:51.488Z,6.05
2023-06-01T09:05:55.214Z,5.22
2023-06-01T09:09:00.354Z,5.88
2023-06-01T09:12:19.571Z,5.93
2023-06-01T09:15:23.393Z,6.13
2023-06-01T09:18:26.689Z,6.38
2023-06-01T09:21:30.790Z,5.65
2023-06-01T09:24:35.686Z,5.20
2023-06-01T09:27:45.781Z,4.50
2023-06-01T09:30:49.034Z,5.18
2023-06-01T09:34:01.804Z,4.93
2023-06-01T09:37:08.857Z,5.13
2023-06-01T09:40:22.630Z,5.53
2023-06-01T09:43:26.259Z,5.22
2023-06-01T09:46:29.533Z,4.20
2023-06-01T09:49:33.467Z,5.10
2023-06-01T09:52:36.699Z,5.25
2023-06-01T09:55:58.976Z,4.38
2023-06-01T09:59:02.513Z,4.70
2023-06-01T10:02:06.761Z,5.30
2023-06-01T10:05:10.163Z,6.03
2023-06-01T10:08:14.375Z,6.38
2023-06-01T10:11:18.984Z,5.22
2023-06-01T10:14:22.539Z,4.85
2023-06-01T10:17:25.899Z,4.70
2023-06-01T10:20:29.441Z,5.00
2023-06-01T10:23:32.664Z,5.25
2023-06-01T10:26:39.922Z,5.97
2023-06-01T10:29:43.317Z,5.05
2023-06-01T10:32:48.298Z,5.22
2023-06-01T10:35:55.086Z,5.47
2023-06-01T10:39:13.559Z,4.30
2023-06-01T10:42:35.379Z,5.20
2023-06-01T10:45:41.207Z,4.82
2023-06-01T10:48:53.792Z,5.00
2023-06-01T10:52:11.916Z,5.30
2023-06-01T10:55:28.213Z,5.00
2023-06-01T10:58:31.502Z,4.88
2023-06-01T11:01:36.536Z,6.18
2023-06-01T11:04:39.840Z,4.85
2023-06-01T11:07:43.161Z,5.35
2023-06-01T11:11:00.665Z,5.13
2023-06-01T11:14:14.639Z,5.43
2023-06-01T11:17:34.149Z,4.15
2023-06-01T11:20:41.705Z,4.72
2023-06-01T11:23:45.087Z,4.75
2023-06-01T11:26:49.281Z,5.75
2023-06-01T11:29:52.788Z,4.18
2023-06-01T11:32:58.491Z,5.22
2023-06-01T11:36:02.200Z,5.13
2023-06-01T11:39:19.894Z,4.47
2023-06-01T11:42:24.959Z,4.63
2023-06-01T11:45:29.599Z,4.57
2023-06-01T11:48:35.092Z,4.72
2023-06-01T11:51:40.000Z,5.05
2023-06-01T11:54:43.413Z,5.25
2023-06-01T11:57:46.647Z,4.88
2023-06-01T12:00:49.965Z,4.90
2023-06-01T12:03:55.118Z,5.90
2023-06-01T12:07:08.630Z,4.47
2023-06-01T12:10:14.694Z,4.85
2023-06-01T12:13:18.445Z,4.45
2023-06-01T12:16:22.867Z,4.07
2023-06-01T12:19:29.344Z,4.65
2023-06-01T12:22:35.473Z,4.80
2023-06-01T12:25:38.737Z,4.57
2023-06-01T12:28:57.548Z,4.78
2023-06-01T12:32:03.834Z,4.15
2023-06-01T12:35:09.214Z,4.78
2023-06-01T12:38:13.606Z,4.63
2023-06-01T12:41:18.992Z,4.75
2023-06-01T12:44:22.520Z,4.50
2023-06-01T12:47:25.801Z,4.82
2023-06-01T12:50:30.378Z,4.75
2023-06-01T12:53:33.669Z,4.53
2023-06-01T12:56:37.089Z,4.88
2023-06-01T12:59:40.304Z,4.35
2023-06-01T13:02:43.783Z,4.05
2023-06-01T13:05:50.656Z,4.13
2023-06-01T13:08:54.295Z,4.25
2023-06-01T13:11:57.567Z,5.13
2023-06-01T13:15:00.986Z,4.45
2023-06-01T13:18:04.826Z,4.45
2023-06-01T13:21:09.640Z,4.05
2023-06-01T13:24:12.865Z,4.82
2023-06-01T13:27:16.106Z,5.28
2023-06-01T13:30:19.366Z,4.13
2023-06-01T13:33:22.595Z,4.90
2023-06-01T13:36:27.186Z,4.43
2023-06-01T13:39:30.630Z,4.47
2023-06-01T13:42:34.128Z,5.18
2023-06-01T13:45:37.388Z,4.65
2023-06-01T13:48:40.615Z,5.13
2023-06-01T13:51:45.354Z,4.45
2023-06-01T13:54:48.597Z,3.75
2023-06-01T13:57:51.837Z,4.65
2023-06-01T14:00:55.179Z,4.88
2023-06-01T14:03:58.584Z,4.03
2023-06-01T14:07:03.410Z,4.90
2023-06-01T14:10:07.464Z,4.60
2023-06-01T14:13:10.734Z,4.55
2023-06-01T14:16:14.054Z,4.45
2023-06-01T14:19:17.351Z,4.18
2023-06-01T14:22:21.894Z,4.40
2023-06-01T14:25:25.111Z,4.10
2023-06-01T14:28:28.573Z,3.80
2023-06-01T14:31:31.839Z,3.80
2023-06-01T14:34:35.346Z,4.38
2023-06-01T14:37:48.853Z,4.68
2023-06-01T14:40:53.062Z,4.50
2023-06-01T14:43:56.314Z,4.00
2023-06-01T14:47:00.520Z,4.18
2023-06-01T14:50:04.461Z,3.78
2023-06-01T14:53:09.092Z,4.53
2023-06-01T14:56:12.310Z,4.35
2023-06-01T14:59:15.669Z,4.10
2023-06-01T15:02:18.913Z,4.22
2023-06-01T15:05:22.141Z,4.20
2023-06-01T15:08:29.988Z,4.38
2023-06-01T15:11:33.536Z,4.32
2023-06-01T15:14:36.773Z,4.60
2023-06-01T15:17:40.296Z,4.57
2023-06-01T15:20:44.360Z,4.60
2023-06-01T15:23:48.920Z,4.85
2023-06-01T15:26:52.144Z,4.28
2023-06-01T15:29:55.390Z,4.53
2023-06-01T15:33:08.010Z,3.70
2023-06-01T15:36:12.219Z,4.57
2023-06-01T15:39:16.971Z,4.40
2023-06-01T15:42:20.219Z,5.07
2023-06-01T15:45:23.476Z,3.97
2023-06-01T15:48:26.709Z,4.28
2023-06-01T15:51:30.036Z,4.32
2023-06-01T15:54:35.166Z,4.43
2023-06-01T15:57:38.505Z,4.20
2023-06-01T16:00:42.378Z,4.13
2023-06-01T16:03:46.369Z,4.03
2023-06-01T16:06:49.872Z,3.60
2023-06-01T16:09:56.862Z,4.20
2023-06-01T16:13:00.394Z,3.75
2023-06-01T16:16:03.651Z,3.45
2023-06-01T16:19:06.948Z,4.28
2023-06-01T16:22:10.467Z,3.45
2023-06-01T16:25:15.099Z,4.05
2023-06-01T16:28:18.768Z,3.63
2023-06-01T16:31:22.623Z,4.38
2023-06-01T16:34:26.234Z,4.00
2023-06-01T16:37:30.173Z,3.60
2023-06-01T16:40:34.776Z,4.07
2023-06-01T16:43:38.006Z,4.03
2023-06-01T16:46:41.280Z,4.30
2023-06-01T16:49:44.610Z,3.88
2023-06-01T16:52:47.826Z,3.67
2023-06-01T16:55:52.443Z,4.18
2023-06-01T16:58:55.670Z,3.80
2023-06-01T17:01:58.982Z,4.10
2023-06-01T17:05:02.493Z,3.70
2023-06-01T17:08:05.834Z,4.00
2023-06-01T17:11:10.400Z,3.63
2023-06-01T17:14:13.630Z,3.45
2023-06-01T17:17:17.108Z,4.95
2023-06-01T17:20:20.463Z,4.25
2023-06-01T17:23:23.821Z,4.25
2023-06-01T17:26:28.374Z,3.88
2023-06-01T17:29:31.628Z,3.90
2023-06-01T17:32:34.937Z,3.70
2023-06-01T17:35:39.486Z,4.00
2023-06-01T17:38:44.494Z,3.65
2023-06-01T17:41:49.028Z,3.55
2023-06-01T17:44:52.254Z,3.13
2023-06-01T17:47:55.635Z,3.60
2023-06-01T17:50:58.886Z,4.15
2023-06-01T17:54:02.190Z,4.15
2023-06-01T17:57:07.226Z,4.18
2023-06-01T18:00:11.064Z,3.97
2023-06-01T18:03:14.563Z,3.35
2023-06-01T18:06:18.007Z,3.85
2023-06-01T18:09:22.118Z,3.70
2023-06-01T18:12:26.657Z,3.60
2023-06-01T18:15:29.860Z,3.72
2023-06-01T18:18:33.138Z,3.35
2023-06-01T18:21:36.602Z,4.35
2023-06-01T18:24:39.988Z,3.95
2023-06-01T18:27:44.538Z,4.07
2023-06-01T18:30:47.883Z,3.95
2023-06-01T18:33:51.611Z,4.35
2023-06-01T18:36:54.829Z,4.80
2023-06-01T18:39:58.030Z,4.35
2023-06-01T18:43:02.990Z,4.50
2023-06-01T18:46:06.590Z,4.68
2023-06-01T18:49:09.937Z,4.38
2023-06-01T18:52:13.781Z,5.32
2023-06-01T18:55:19.044Z,4.20
2023-06-01T18:58:23.793Z,5.00
2023-06-01T19:01:27.046Z,5.63
2023-06-01T19:04:30.406Z,5.28
2023-06-01T19:07:37.490Z,5.03
2023-06-01T19:10:55.683Z,5.50
2023-06-01T19:14:00.250Z,4.80
2023-06-01T19:17:03.513Z,5.55
2023-06-01T19:20:07.063Z,5.78
2023-06-01T19:23:10.427Z,5.38
2023-06-01T19:26:15.929Z,5.50
2023-06-01T19:29:22.468Z,5.10
2023-06-01T19:32:26.170Z,4.88
2023-06-01T19:35:31.004Z,5.38
2023-06-01T19:38:34.723Z,5.45
2023-06-01T19:41:37.972Z,6.07
2023-06-01T19:44:42.960Z,6.05
2023-06-01T19:47:49.322Z,5.00
2023-06-01T19:50:52.659Z,5.75
2023-06-01T19:53:55.884Z,5.85
2023-06-01T19:57:00.058Z,4.82
2023-06-01T20:00:04.749Z,5.63
2023-06-01T20:03:12.407Z,5.65
2023-06-01T20:06:17.873Z,5.07
2023-06-01T20:09:22.027Z,5.30
2023-06-01T20:12:26.048Z,4.07
2023-06-01T20:15:31.721Z,5.10
2023-06-01T20:18:39.558Z,5.22
2023-06-01T20:21:44.210Z,4.30
2023-06-01T20:24:47.459Z,5.82
2023-06-01T20:27:50.690Z,4.45
2023-06-01T20:31:04.872Z,4.63
2023-06-01T20:34:09.199Z,4.40
2023-06-01T20:37:12.514Z,4.63
2023-06-01T20:40:16.332Z,4.57
2023-06-01T20:43:22.861Z,5.63
2023-06-01T20:46:29.494Z,5.20
2023-06-01T20:49:32.778Z,5.32
2023-06-01T20:52:36.698Z,4.75
2023-06-01T20:55:41.241Z,5.07
2023-06-01T20:58:44.578Z,5.88
2023-06-01T21:01:51.523Z,5.70
2023-06-01T21:04:54.765Z,4.72
2023-06-01T21:07:57.970Z,5.28
2023-06-01T21:11:01.247Z,6.25
2023-06-01T21:14:04.527Z,6.13
2023-06-01T21:17:09.332Z,5.93
2023-06-01T21:20:12.910Z,4.82
2023-06-01T21:23:16.174Z,5.30
2023-06-01T21:26:19.591Z,6.93
2023-06-01T21:29:22.872Z,5.40
2023-06-01T21:32:27.541Z,6.25
2023-06-01T21:35:30.842Z,5.80
2023-06-01T21:38:34.129Z,5.53
2023-06-01T21:41:37.900Z,5.40
2023-06-01T21:44:41.185Z,5.40
2023-06-01T21:47:48.287Z,4.83
2023-06-01T21:50:52.125Z,6.03
2023-06-01T21:53:55.434Z,5.83
2023-06-01T21:56:58.739Z,6.10
2023-06-01T22:00:02.230Z,5.83
2023-06-01T22:03:07.332Z,6.43
2023-06-01T22:06:10.798Z,5.97
2023-06-01T22:09:14.084Z,5.97
2023-06-01T22:12:17.611Z,5.70
2023-06-01T22:15:20.938Z,5.53
2023-06-01T22:18:25.618Z,5.97
2023-06-01T22:21:28.986Z,5.53
2023-06-01T22:24:32.478Z,6.90
2023-06-01T22:27:35.793Z,5.70
2023-06-01T22:30:39.232Z,6.40
2023-06-01T22:33:44.046Z,6.30
2023-06-01T22:36:47.317Z,5.50
2023-06-01T22:39:51.063Z,6.07
2023-06-01T22:42:54.343Z,6.30
2023-06-01T22:45:57.707Z,5.83
2023-06-01T22:49:06.850Z,5.63
2023-06-01T22:52:11.226Z,5.50
2023-06-01T22:55:14.558Z,6.90
2023-06-01T22:58:18.323Z,6.40
2023-06-01T23:01:21.909Z,6.50
2023-06-01T23:04:26.557Z,6.40
2023-06-01T23:07:30.176Z,6.47
2023-06-01T23:10:38.107Z,8.30
2023-06-01T23:13:42.074Z,8.37
2023-06-01T23:16:46.496Z,7.23
2023-06-01T23:19:51.282Z,8.43
2023-06-01T23:22:54.568Z,7.57
2023-06-01T23:25:57.860Z,7.00
2023-06-01T23:29:02.092Z,7.37
2023-06-01T23:32:06.073Z,6.93
2023-06-01T23:35:12.520Z,6.93
2023-06-01T23:38:15.849Z,6.63
2023-06-01T23:41:19.122Z,6.43
2023-06-01T23:44:22.356Z,5.93
2023-06-01T23:47:25.969Z,6.73
2023-06-01T23:50:30.594Z,6.03
2023-06-01T23:53:33.812Z,6.53
2023-06-01T23:56:37.040Z,6.07
2023-06-01T23:59:40.255Z,5.70
